Time;durP1;ratioP1;P1;durP2;ratioP2;P2;SDS_P1;SDS_P2;PMS_P1;PMS_P2;Temp;Humidity;BMP_temperature;BMP_pressure;BME280_temperature;BME280_humidity;BME280_pressure;Samples;Min_cycle;Max_cycle;Signal;HPM_P1;HPM_P2
2022/09/26 04:05:14;;;;;;;;;;;;;;;15.85;72.07;96390.78;4241121;27;10312;-77
2022/09/26 04:07:17;;;;;;;;;;;;;;;16.07;71.60;96390.94;4231261;27;5648;-78
2022/09/26 04:09:20;;;;;;;;;;;;;;;16.33;71.34;96387.72;4240584;27;5707;-77
2022/09/26 04:11:24;;;;;;;;;;;;;;;16.50;70.93;96379.72;4240470;27;5601;-76
2022/09/26 04:13:27;;;;;;;;;;;;;;;16.66;70.51;96386.97;4233600;27;5586;-76
2022/09/26 04:15:54;;;;;;;;;;;;;;;16.81;70.28;96389.91;4213818;28;7062;-77
2022/09/26 04:17:57;;;;;;;;;;;;;;;16.87;69.85;96383.63;4229765;27;5605;-79
2022/09/26 04:20:00;;;;;;;;;;;;;;;16.95;70.03;96392.25;4230228;27;5597;-78
2022/09/26 04:22:06;;;;;;;;;;;;;;;17.02;69.70;96387.56;4241973;27;5620;-79
2022/09/26 04:24:14;;;;;;;;;;;;;;;17.07;69.61;96387.63;4244496;27;5677;-79
2022/09/26 04:26:18;;;;;;;;;;;;;;;17.10;69.49;96389.81;4230753;28;5616;-80
2022/09/26 04:28:25;;;;;;;;;;;;;;;17.12;69.23;96391.22;4243007;27;5841;-78
2022/09/26 04:30:28;;;;;;;;;;;;;;;17.11;69.24;96378.91;4233262;27;6378;-77
2022/09/26 04:32:32;;;;;;;;;;;;;;;17.15;69.22;96381.91;4234416;27;5689;-79
2022/09/26 04:34:37;;;;;;;;;;;;;;;17.19;68.97;96388.34;4240799;27;5816;-79
2022/09/26 04:36:40;;;;;;;;;;;;;;;17.22;68.85;96387.88;4234435;27;7863;-78
2022/09/26 04:38:44;;;;;;;;;;;;;;;17.24;68.87;96385.78;4229333;27;5616;-78
2022/09/26 04:40:47;;;;;;;;;;;;;;;17.25;68.62;96381.25;4222524;27;5622;-78
2022/09/26 04:42:50;;;;;;;;;;;;;;;17.25;68.72;96383.91;4240851;27;5625;-79
2022/09/26 04:44:53;;;;;;;;;;;;;;;17.27;68.47;96376.47;4238276;27;5589;-78
2022/09/26 04:46:55;;;;;;;;;;;;;;;17.26;68.42;96375.66;4237584;27;5605;-78
2022/09/26 04:48:59;;;;;;;;;;;;;;;17.26;68.33;96370.31;4232816;27;6281;-78
2022/09/26 04:51:06;;;;;;;;;;;;;;;17.29;68.46;96372.47;4243628;27;5680;-77
2022/09/26 04:53:10;;;;;;;;;;;;;;;17.31;68.08;96370.38;4238472;27;5674;-78
2022/09/26 04:55:14;;;;;;;;;;;;;;;17.32;68.14;96377.31;4242218;27;5585;-77
2022/09/26 04:57:17;;;;;;;;;;;;;;;17.33;68.04;96376.28;4224709;27;5723;-78
2022/09/26 04:59:21;;;;;;;;;;;;;;;17.33;67.96;96378.97;4229826;28;5703;-78
2022/09/26 05:01:24;;;;;;;;;;;;;;;17.32;67.94;96369.31;4229935;28;5623;-78
2022/09/26 05:03:28;;;;;;;;;;;;;;;17.32;67.87;96371.97;4229619;28;5758;-77
2022/09/26 05:05:32;;;;;;;;;;;;;;;17.32;67.58;96374.66;4222303;28;5734;-78
2022/09/26 05:07:39;;;;;;;;;;;;;;;17.34;67.74;96372.56;4215795;28;6294;-78
2022/09/26 05:09:43;;;;;;;;;;;;;;;17.35;67.75;96373.38;4212802;28;5695;-77
2022/09/26 05:11:47;;;;;;;;;;;;;;;17.34;67.57;96367.22;4201157;28;5543;-78
2022/09/26 05:13:50;;;;;;;;;;;;;;;17.37;67.62;96371.25;4215274;28;5699;-78
2022/09/26 05:15:59;;;;;;;;;;;;;;;17.36;67.53;96366.97;4210810;28;5860;-77
2022/09/26 05:18:01;;;;;;;;;;;;;;;17.37;67.36;96376.59;4214899;28;5717;-78
2022/09/26 05:20:07;;;;;;;;;;;;;;;17.37;67.33;96371.25;4211410;28;5636;-78
2022/09/26 05:22:10;;;;;;;;;;;;;;;17.37;67.31;96366.72;4214872;28;5757;-78
2022/09/26 05:26:40;;;;;;;;;;;;;;;17.38;67.20;96368.34;4216214;28;5623;-78
2022/09/26 05:28:44;;;;;;;;;;;;;;;17.41;67.15;96364.34;4217291;28;6177;-75
2022/09/26 05:30:49;;;;;;;;;;;;;;;17.42;66.79;96363.31;4212570;28;5683;-76
2022/09/26 05:32:51;;;;;;;;;;;;;;;17.37;66.76;96372.06;4202354;28;5809;-76
2022/09/26 05:34:54;;;;;;;;;;;;;;;17.37;66.93;96361.38;4202153;28;5623;-76
2022/09/26 05:36:58;;;;;;;;;;;;;;;17.37;67.04;96361.38;4201937;28;5638;-76
2022/09/26 05:39:02;;;;;;;;;;;;;;;17.37;66.82;96366.72;4208858;28;6535;-76
2022/09/26 05:41:04;;;;;;;;;;;;;;;17.33;66.87;96360.25;4214516;28;5596;-80
2022/09/26 05:43:07;;;;;;;;;;;;;;;17.32;66.70;96358.63;4204600;28;5635;-76
2022/09/26 05:45:12;;;;;;;;;;;;;;;17.32;66.76;96355.94;4208351;28;5626;-76
2022/09/26 05:47:16;;;;;;;;;;;;;;;17.32;66.63;96358.63;4215734;28;5088;-75
2022/09/26 05:49:19;;;;;;;;;;;;;;;17.34;66.48;96355.72;4198152;28;5770;-75
2022/09/26 05:51:23;;;;;;;;;;;;;;;17.33;66.48;96359.47;4206580;28;5706;-76
2022/09/26 05:53:26;;;;;;;;;;;;;;;17.33;66.29;96356.78;4213571;28;5628;-75
2022/09/26 05:55:30;;;;;;;;;;;;;;;17.32;66.13;96361.28;4218066;28;5609;-77
2022/09/26 05:57:32;;;;;;;;;;;;;;;17.30;66.26;96360.75;4218528;28;5632;-76
2022/09/26 05:59:35;;;;;;;;;;;;;;;17.29;66.21;96358.31;4218355;28;5607;-75
2022/09/26 06:01:40;;;;;;;;;;;;;;;17.29;66.25;96353.78;4218262;28;5635;-75
2022/09/26 06:03:44;;;;;;;;;;;;;;;17.27;66.03;96363.91;4217919;28;5616;-75
2022/09/26 06:05:47;;;;;;;;;;;;;;;17.24;66.02;96356.38;4218185;28;5616;-75
2022/09/26 06:07:50;;;;;;;;;;;;;;;17.25;66.05;96349.19;4184699;28;5742;-75
2022/09/26 06:09:53;;;;;;;;;;;;;;;17.26;65.92;96348.94;4183388;28;5813;-75
2022/09/26 06:11:56;;;;;;;;;;;;;;;17.28;65.83;96352.16;4201323;28;6316;-75
2022/09/26 06:13:59;;;;;;;;;;;;;;;17.27;65.66;96342.53;4201552;28;5626;-75
2022/09/26 06:16:06;;;;;;;;;;;;;;;17.27;65.93;96345.22;4201490;28;6360;-75
2022/09/26 06:18:10;;;;;;;;;;;;;;;17.21;65.79;96348.03;4200775;28;5646;-76
2022/09/26 06:20:14;;;;;;;;;;;;;;;17.20;65.96;96344.56;4201159;28;5647;-75
2022/09/26 06:22:17;;;;;;;;;;;;;;;17.22;65.70;96347.00;4182978;28;6494;-76
2022/09/26 06:24:21;;;;;;;;;;;;;;;17.24;65.70;96344.91;4199775;28;5647;-76
2022/09/26 06:26:27;;;;;;;;;;;;;;;17.25;65.48;96347.31;4204812;28;5787;-76
2022/09/26 06:28:31;;;;;;;;;;;;;;;17.26;65.58;96345.47;4208714;28;5769;-77
2022/09/26 06:30:35;;;;;;;;;;;;;;;17.24;65.51;96345.72;4187215;28;5750;-76
2022/09/26 06:32:38;;;;;;;;;;;;;;;17.24;65.42;96340.38;4213154;28;5868;-76
2022/09/26 06:34:42;;;;;;;;;;;;;;;17.29;65.39;96352.97;4214446;28;5713;-76
2022/09/26 06:36:46;;;;;;;;;;;;;;;17.27;65.34;96347.88;4211270;28;5608;-76
2022/09/26 06:38:49;;;;;;;;;;;;;;;17.31;65.38;96351.66;4202032;28;5285;-76
2022/09/26 06:40:53;;;;;;;;;;;;;;;17.33;65.30;96356.78;4206391;28;7680;-76
2022/09/26 06:42:56;;;;;;;;;;;;;;;17.34;65.28;96359.22;4212855;28;5755;-76
2022/09/26 06:45:01;;;;;;;;;;;;;;;17.35;65.40;96352.81;4217763;28;6425;-76
2022/09/26 06:47:04;;;;;;;;;;;;;;;17.35;65.09;96352.81;4202209;28;5635;-76
2022/09/26 06:49:07;;;;;;;;;;;;;;;17.35;65.20;96357.34;4217513;28;5615;-76
2022/09/26 06:51:13;;;;;;;;;;;;;;;17.36;65.18;96351.75;4217608;28;5684;-76
2022/09/26 06:53:16;;;;;;;;;;;;;;;17.37;65.17;96345.34;4213061;28;5699;-76
2022/09/26 06:55:21;;;;;;;;;;;;;;;17.39;64.99;96353.13;4210246;28;5767;-76
2022/09/26 06:57:25;;;;;;;;;;;;;;;17.39;64.99;96342.44;4208657;28;5883;-76
2022/09/26 06:59:27;;;;;;;;;;;;;;;17.39;65.18;96340.56;4205814;28;5638;-76
2022/09/26 07:01:30;;;;;;;;;;;;;;;17.39;64.88;96348.56;4200790;28;5634;-76
2022/09/26 07:03:33;;;;;;;;;;;;;;;17.39;64.87;96342.44;4182140;28;5840;-76
2022/09/26 07:05:39;;;;;;;;;;;;;;;17.39;64.81;96337.88;4206768;28;5876;-77
2022/09/26 07:07:45;;;;;;;;;;;;;;;17.41;65.02;96341.13;4209407;28;7696;-76
2022/09/26 07:09:48;;;;;;;;;;;;;;;17.40;64.81;96342.19;4203414;28;6600;-76
2022/09/26 07:11:51;;;;;;;;;;;;;;;17.41;64.96;96341.13;4213188;28;5761;-76
2022/09/26 07:14:16;;;;;;;;;;;;;;;17.45;64.70;96346.81;4199971;28;5631;-76
2022/09/26 07:16:19;;;;;;;;;;;;;;;17.45;64.59;96352.94;4214916;28;5635;-75
2022/09/26 07:18:22;;;;;;;;;;;;;;;17.47;64.68;96336.66;4215867;28;5706;-75
2022/09/26 07:20:25;;;;;;;;;;;;;;;17.51;64.64;96348.47;4207356;28;5612;-74
2022/09/26 07:22:28;;;;;;;;;;;;;;;17.55;64.49;96330.06;4202115;28;5833;-76
2022/09/26 07:24:33;;;;;;;;;;;;;;;17.61;64.31;96337.91;4207356;28;6000;-75
2022/09/26 07:26:36;;;;;;;;;;;;;;;17.64;64.34;96336.59;4208093;28;5718;-75
2022/09/26 07:28:39;;;;;;;;;;;;;;;17.65;64.40;96340.88;4190713;28;5738;-76
2022/09/26 07:30:42;;;;;;;;;;;;;;;17.63;64.20;96337.66;4216614;28;5703;-76
2022/09/26 07:32:45;;;;;;;;;;;;;;;17.62;64.18;96338.72;4216247;28;5706;-75
2022/09/26 07:34:48;;;;;;;;;;;;;;;17.64;64.38;96336.59;4216277;28;5623;-76
2022/09/26 07:36:51;;;;;;;;;;;;;;;17.64;64.47;96339.28;4204664;28;5636;-76
2022/09/26 07:38:53;;;;;;;;;;;;;;;17.62;64.19;96336.84;4215347;28;5785;-76
2022/09/26 07:40:59;;;;;;;;;;;;;;;17.63;64.28;96333.13;4216296;28;5642;-74
2022/09/26 07:43:03;;;;;;;;;;;;;;;17.63;64.29;96337.66;4201170;28;5650;-75
2022/09/26 07:50:09;;;;;;;;;;;;;;;17.65;64.12;96339.00;4199835;28;5673;-76
2022/09/26 07:50:12;;;;;;;;;;;;;;;17.65;64.12;96339.00;4207090;28;5617;-75
2022/09/26 07:52:16;;;;;;;;;;;;;;;17.64;64.16;96336.59;4215765;28;5628;-75
2022/09/26 07:54:19;;;;;;;;;;;;;;;17.63;64.09;96343.00;4216437;28;5648;-75
2022/09/26 07:56:23;;;;;;;;;;;;;;;17.64;64.21;96337.41;4215318;28;5707;-75
2022/09/26 07:58:26;;;;;;;;;;;;;;;17.65;63.95;96338.22;4206376;28;5666;-76
2022/09/26 08:00:30;;;;;;;;;;;;;;;17.68;64.05;96343.09;4209031;28;5628;-75
2022/09/26 08:02:34;;;;;;;;;;;;;;;17.69;64.05;96344.72;4202347;28;5634;-76
2022/09/26 08:04:37;;;;;;;;;;;;;;;17.71;63.96;96345.28;4212727;28;5619;-76
2022/09/26 08:06:40;;;;;;;;;;;;;;;17.72;63.87;96346.88;4216484;28;5720;-76
2022/09/26 08:08:49;;;;;;;;;;;;;;;17.73;64.02;96341.28;4211793;28;5623;-76
2022/09/26 08:10:52;;;;;;;;;;;;;;;17.74;63.70;96342.09;4201562;28;6412;-76
2022/09/26 08:13:00;;;;;;;;;;;;;;;17.76;63.71;96337.31;4199459;28;5734;-75
2022/09/26 08:15:05;;;;;;;;;;;;;;;17.77;63.76;96341.59;4199905;28;5664;-75
2022/09/26 08:17:09;;;;;;;;;;;;;;;17.78;63.73;96335.22;4213973;28;5604;-75
2022/09/26 08:19:16;;;;;;;;;;;;;;;17.76;63.68;96339.97;4216764;28;5608;-75
2022/09/26 08:21:20;;;;;;;;;;;;;;;17.78;63.77;96351.25;4188480;28;5866;-76
2022/09/26 08:23:23;;;;;;;;;;;;;;;17.77;63.53;96344.25;4199532;28;5635;-76
2022/09/26 08:25:26;;;;;;;;;;;;;;;17.81;63.41;96347.28;4199138;28;5717;-76
2022/09/26 08:27:32;;;;;;;;;;;;;;;17.81;63.63;96340.06;4216283;28;5792;-76
2022/09/26 08:29:36;;;;;;;;;;;;;;;17.83;63.36;96343.28;4205290;28;6437;-76
2022/09/26 08:31:39;;;;;;;;;;;;;;;17.83;63.31;96337.13;4189658;28;5868;-76
2022/09/26 08:33:44;;;;;;;;;;;;;;;17.86;63.24;96342.78;4198074;28;5750;-76
2022/09/26 08:35:49;;;;;;;;;;;;;;;17.86;63.17;96334.75;4215330;28;5705;-76
2022/09/26 08:37:54;;;;;;;;;;;;;;;17.85;63.08;96330.47;4214035;28;5619;-76
2022/09/26 08:39:59;;;;;;;;;;;;;;;17.85;62.83;96335.81;4213709;28;5683;-76
2022/09/26 08:42:27;;;;;;;;;;;;;;;17.87;62.99;96327.53;4216252;28;5723;-76
2022/09/26 08:44:51;;;;;;;;;;;;;;;17.87;62.86;96332.88;4219125;28;5690;-76
2022/09/26 08:47:00;;;;;;;;;;;;;;;17.87;62.60;96336.38;4207995;28;5616;-76
2022/09/26 08:49:23;;;;;;;;;;;;;;;17.88;62.56;96332.63;4219693;28;5627;-76
2022/09/26 08:51:33;;;;;;;;;;;;;;;17.91;62.62;96328.66;4218799;28;5628;-76
2022/09/26 08:53:48;;;;;;;;;;;;;;;17.91;62.41;96334.03;4219017;28;5619;-75
2022/09/26 08:55:54;;;;;;;;;;;;;;;17.91;62.21;96321.47;4200751;28;5766;-76
2022/09/26 08:58:01;;;;;;;;;;;;;;;17.87;62.07;96320.31;4218739;28;5695;-75
2022/09/26 09:00:17;;;;;;;;;;;;;;;17.89;62.03;96317.41;4204710;28;5655;-75
2022/09/26 09:02:31;;;;;;;;;;;;;;;17.93;62.00;96308.63;4184461;28;5775;-75
2022/09/26 09:04:41;;;;;;;;;;;;;;;17.98;61.87;96315.91;4213087;28;5706;-76
2022/09/26 09:06:45;;;;;;;;;;;;;;;18.02;61.54;96315.16;4211335;28;5631;-76
2022/09/26 09:08:51;;;;;;;;;;;;;;;18.04;61.51;96314.91;4211605;28;5659;-76
2022/09/26 09:11:04;;;;;;;;;;;;;;;18.07;61.70;96316.25;4201777;28;5635;-76
2022/09/26 09:13:17;;;;;;;;;;;;;;;18.06;61.33;96317.31;4202360;28;5627;-76
2022/09/26 09:15:34;;;;;;;;;;;;;;;18.08;61.38;96324.03;4215735;28;5790;-76
2022/09/26 09:17:46;;;;;;;;;;;;;;;18.11;61.12;96309.34;4212627;28;5650;-76
2022/09/26 09:20:00;;;;;;;;;;;;;;;18.10;61.13;96311.22;4205926;28;5643;-76
2022/09/26 09:22:20;;;;;;;;;;;;;;;18.11;60.87;96315.50;4202518;28;5771;-76
2022/09/26 09:24:38;;;;;;;;;;;;;;;18.09;60.74;96311.47;4201576;28;5627;-75
2022/09/26 09:26:51;;;;;;;;;;;;;;;18.09;60.67;96309.59;4202006;28;5631;-76
2022/09/26 09:29:43;;;;;;;;;;;;;;;18.12;60.63;96306.44;4204859;28;5623;-75
2022/09/26 09:31:56;;;;;;;;;;;;;;;18.16;60.39;96304.06;4201919;28;5731;-76
2022/09/26 09:34:04;;;;;;;;;;;;;;;18.17;60.32;96308.34;4213422;28;5660;-76
2022/09/26 09:36:12;;;;;;;;;;;;;;;18.20;60.53;96308.63;4188241;28;6016;-75
2022/09/26 09:38:19;;;;;;;;;;;;;;;18.22;60.16;96313.72;4217091;28;6312;-75
2022/09/26 09:40:27;;;;;;;;;;;;;;;18.25;60.20;96307.91;4210330;28;5907;-75
2022/09/26 09:42:39;;;;;;;;;;;;;;;18.25;60.20;96299.88;4202039;28;7718;-76
2022/09/26 09:44:47;;;;;;;;;;;;;;;18.25;59.97;96294.50;4202003;28;5643;-76
2022/09/26 09:46:50;;;;;;;;;;;;;;;18.28;59.80;96294.81;4201974;28;5643;-76
2022/09/26 09:49:00;;;;;;;;;;;;;;;18.30;59.90;96299.91;4201895;28;5852;-76
2022/09/26 09:51:14;;;;;;;;;;;;;;;18.33;59.82;96296.72;4201345;28;5755;-75
2022/09/26 09:53:34;;;;;;;;;;;;;;;18.34;59.51;96298.31;4209420;28;5764;-75
2022/09/26 09:55:46;;;;;;;;;;;;;;;18.34;59.71;96291.09;4217721;28;5096;-76
2022/09/26 09:58:20;;;;;;;;;;;;;;;18.34;59.44;96291.09;4218179;28;5701;-76
2022/09/26 10:00:26;;;;;;;;;;;;;;;18.37;59.22;96289.81;4213101;28;5616;-76
2022/09/26 10:02:38;;;;;;;;;;;;;;;18.38;59.32;96286.06;4212349;28;5653;-76
2022/09/26 10:04:47;;;;;;;;;;;;;;;18.37;59.21;96292.47;4217873;28;5714;-76
2022/09/26 10:06:51;;;;;;;;;;;;;;;18.39;59.25;96287.69;4213088;28;5604;-76
2022/09/26 10:08:56;;;;;;;;;;;;;;;18.41;59.26;96296.25;4214275;28;5691;-76
2022/09/26 10:11:27;;;;;;;;;;;;;;;18.44;59.22;96287.72;4210476;28;5616;-76
2022/09/26 10:13:31;;;;;;;;;;;;;;;18.46;59.12;96285.59;4212428;28;5627;-75
2022/09/26 10:15:35;;;;;;;;;;;;;;;18.47;58.93;96281.88;4214533;28;5848;-75
2022/09/26 10:17:39;;;;;;;;;;;;;;;18.48;59.11;96283.47;4215781;28;5640;-76
2022/09/26 10:19:43;;;;;;;;;;;;;;;18.48;58.97;96275.44;4216963;28;5683;-75
2022/09/26 10:21:51;;;;;;;;;;;;;;;18.48;59.10;96285.34;4215744;28;5619;-76
2022/09/26 10:23:55;;;;;;;;;;;;;;;18.49;58.91;96273.56;4204273;28;6453;-75
2022/09/26 10:26:02;;;;;;;;;;;;;;;18.49;58.83;96271.72;4200905;28;5631;-76
2022/09/26 10:28:05;;;;;;;;;;;;;;;18.50;58.92;96276.00;4214946;28;5790;-76
2022/09/26 10:30:24;;;;;;;;;;;;;;;18.53;58.65;96274.66;4208904;28;5784;-77
2022/09/26 10:32:29;;;;;;;;;;;;;;;18.56;58.61;96271.47;4209194;28;5694;-76
2022/09/26 10:34:34;;;;;;;;;;;;;;;18.56;58.74;96272.28;4220967;28;5716;-78
2022/09/26 10:36:39;;;;;;;;;;;;;;;18.54;58.64;96274.41;4214312;28;5799;-77
2022/09/26 10:41:23;;;;;;;;;;;;;;;18.59;58.65;96265.63;4203391;28;5819;-76
2022/09/26 10:43:29;;;;;;;;;;;;;;;18.59;58.39;96262.94;4212611;28;5639;-76
2022/09/26 10:45:35;;;;;;;;;;;;;;;18.58;58.59;96264.03;4208668;28;5782;-75
2022/09/26 10:47:39;;;;;;;;;;;;;;;18.60;58.73;96257.34;4192110;28;5822;-77
2022/09/26 10:49:49;;;;;;;;;;;;;;;18.63;58.77;96261.38;4215497;28;5706;-76
2022/09/26 10:52:07;;;;;;;;;;;;;;;18.65;58.53;96253.09;4212567;28;5632;-77
2022/09/26 10:54:13;;;;;;;;;;;;;;;18.69;58.56;96254.19;4215348;28;5620;-77
2022/09/26 10:56:25;;;;;;;;;;;;;;;18.67;58.66;96257.13;4212991;28;5616;-76
2022/09/26 10:58:29;;;;;;;;;;;;;;;18.65;58.65;96251.22;4209735;28;5814;-76
2022/09/26 11:00:37;;;;;;;;;;;;;;;18.68;58.97;96249.91;4215940;28;5714;-76
2022/09/26 11:02:46;;;;;;;;;;;;;;;18.68;58.54;96237.31;4196780;28;5864;-76
2022/09/26 11:07:28;;;;;;;;;;;;;;;18.69;58.45;96243.47;4200039;28;5722;-77
2022/09/26 11:09:32;;;;;;;;;;;;;;;18.67;58.40;96240.25;4220550;28;5693;-76
2022/09/26 11:11:38;;;;;;;;;;;;;;;18.68;58.31;96236.53;4183190;28;5859;-76
2022/09/26 11:13:48;;;;;;;;;;;;;;;18.70;58.28;96229.06;4209661;28;5658;-76
2022/09/26 11:16:00;;;;;;;;;;;;;;;18.71;58.34;96231.47;4216365;28;5679;-76
2022/09/26 11:18:05;;;;;;;;;;;;;;;18.67;58.10;96218.84;4215013;28;5752;-77
2022/09/26 11:20:11;;;;;;;;;;;;;;;18.65;58.15;96220.97;4205718;28;5710;-76
2022/09/26 11:22:24;;;;;;;;;;;;;;;18.66;58.20;96225.28;4214291;28;5627;-77
2022/09/26 11:24:36;;;;;;;;;;;;;;;18.66;57.95;96214.56;4211869;28;5635;-76
2022/09/26 11:26:48;;;;;;;;;;;;;;;18.70;57.77;96218.34;4199467;28;5693;-76
2022/09/26 11:29:02;;;;;;;;;;;;;;;18.75;57.75;96216.50;4210519;28;6376;-77
2022/09/26 11:31:14;;;;;;;;;;;;;;;18.74;57.41;96214.09;4197469;28;5742;-76
2022/09/26 11:33:20;;;;;;;;;;;;;;;18.77;57.60;96208.19;4210663;28;5659;-76
2022/09/26 11:35:34;;;;;;;;;;;;;;;18.77;57.20;96206.31;4215297;28;5624;-76
2022/09/26 11:38:02;;;;;;;;;;;;;;;18.79;57.14;96204.19;4189763;28;5729;-76
2022/09/26 11:40:20;;;;;;;;;;;;;;;18.82;56.96;96203.69;4209606;28;5680;-76
2022/09/26 11:42:35;;;;;;;;;;;;;;;18.83;56.85;96205.31;4215137;28;5635;-76
2022/09/26 11:44:50;;;;;;;;;;;;;;;18.85;56.74;96195.13;4197084;28;5746;-75
2022/09/26 11:47:07;;;;;;;;;;;;;;;18.92;56.69;96192.25;4208448;28;5729;-76
2022/09/26 11:49:39;;;;;;;;;;;;;;;18.98;56.47;96185.00;4208182;28;5623;-76
2022/09/26 11:51:57;;;;;;;;;;;;;;;19.00;56.11;96185.56;4200025;28;5714;-77
2022/09/26 11:54:19;;;;;;;;;;;;;;;19.03;55.85;96179.69;4210436;28;6321;-77
2022/09/26 11:56:39;;;;;;;;;;;;;;;19.06;55.93;96177.28;4194228;28;5846;-76
2022/09/26 11:58:49;;;;;;;;;;;;;;;19.07;55.44;96180.78;4215307;28;6256;-77
2022/09/26 12:00:59;;;;;;;;;;;;;;;19.10;55.56;96181.06;4209701;28;5714;-76
2022/09/26 12:03:34;;;;;;;;;;;;;;;19.14;55.34;96175.97;4208526;28;5740;-76
2022/09/26 12:05:49;;;;;;;;;;;;;;;19.16;55.34;96171.19;4195362;28;5727;-77
2022/09/26 12:08:03;;;;;;;;;;;;;;;19.15;55.08;96166.88;4206775;28;5706;-76
2022/09/26 12:10:25;;;;;;;;;;;;;;;19.15;54.88;96165.00;4210932;28;5708;-74
2022/09/26 12:12:40;;;;;;;;;;;;;;;19.17;54.74;96165.56;4205038;28;5778;-72
2022/09/26 12:15:01;;;;;;;;;;;;;;;19.19;54.64;96163.41;4211540;28;5734;-72
2022/09/26 12:17:14;;;;;;;;;;;;;;;19.20;54.70;96154.31;4216595;28;5759;-72
2022/09/26 12:19:27;;;;;;;;;;;;;;;19.22;54.11;96151.34;4214870;28;5728;-73
2022/09/26 12:21:40;;;;;;;;;;;;;;;19.23;54.25;96150.28;4198409;28;5856;-73
2022/09/26 12:23:49;;;;;;;;;;;;;;;19.20;54.26;96151.63;4199689;28;5738;-72
2022/09/26 12:26:07;;;;;;;;;;;;;;;19.19;54.06;96147.34;4207875;28;5719;-72
2022/09/26 12:28:30;;;;;;;;;;;;;;;19.16;53.78;96137.16;4210815;28;5688;-72
2022/09/26 12:30:40;;;;;;;;;;;;;;;19.16;53.85;96126.44;4212241;28;5620;-72
2022/09/26 12:33:00;;;;;;;;;;;;;;;19.14;53.50;96130.41;4192973;28;5813;-72
2022/09/26 12:35:17;;;;;;;;;;;;;;;19.13;53.32;96129.63;4197138;28;5928;-72
2022/09/26 12:37:38;;;;;;;;;;;;;;;19.10;53.57;96127.47;4214274;28;5626;-72
2022/09/26 12:40:01;;;;;;;;;;;;;;;19.13;53.32;96116.22;4195500;28;5771;-72
2022/09/26 12:42:21;;;;;;;;;;;;;;;19.14;53.33;96111.66;4214855;28;5630;-72
2022/09/26 12:44:43;;;;;;;;;;;;;;;19.14;53.14;96112.50;4218643;28;5722;-72
2022/09/26 12:47:06;;;;;;;;;;;;;;;19.11;52.85;96113.00;4215674;28;5611;-72
2022/09/26 12:49:35;;;;;;;;;;;;;;;19.07;52.75;96106.56;4213865;28;5872;-72
2022/09/26 12:51:42;;;;;;;;;;;;;;;19.05;52.49;96108.72;4207707;28;5745;-72
2022/09/26 12:54:01;;;;;;;;;;;;;;;19.05;52.56;96108.72;4213369;28;5620;-72
2022/09/26 12:56:08;;;;;;;;;;;;;;;19.09;52.46;96109.00;4212236;28;5652;-72
2022/09/26 12:58:28;;;;;;;;;;;;;;;19.07;52.31;96109.25;4213529;28;5631;-72
2022/09/26 13:00:39;;;;;;;;;;;;;;;19.07;52.56;96103.09;4216668;28;5627;-72
2022/09/26 13:03:06;;;;;;;;;;;;;;;19.07;52.25;96103.91;4206183;28;5729;-72
2022/09/26 13:05:36;;;;;;;;;;;;;;;19.09;52.33;96092.91;4194701;28;5674;-72
2022/09/26 13:07:56;;;;;;;;;;;;;;;19.10;52.31;96095.31;4210134;28;5691;-72
2022/09/26 13:10:34;;;;;;;;;;;;;;;19.12;52.02;96087.81;4214893;28;5722;-73
2022/09/26 13:13:21;;;;;;;;;;;;;;;19.07;52.16;96082.47;4211998;28;5798;-73
2022/09/26 13:15:33;;;;;;;;;;;;;;;19.07;51.78;96078.97;4207904;28;5608;-71
2022/09/26 13:17:41;;;;;;;;;;;;;;;19.09;51.98;96087.56;4218020;28;5735;-72
2022/09/26 13:19:51;;;;;;;;;;;;;;;19.09;51.83;96085.69;4200593;28;6038;-72
2022/09/26 13:21:58;;;;;;;;;;;;;;;19.12;51.73;96084.34;4214483;28;7094;-71
2022/09/26 13:24:07;;;;;;;;;;;;;;;19.14;51.37;96080.34;4214543;28;5721;-71
2022/09/26 13:26:15;;;;;;;;;;;;;;;19.15;51.20;96076.59;4199031;28;5659;-71
2022/09/26 13:28:22;;;;;;;;;;;;;;;19.17;51.27;96074.47;4213647;28;5619;-71
2022/09/26 13:30:34;;;;;;;;;;;;;;;19.20;51.37;96063.19;4213139;28;5642;-71
2022/09/26 13:32:52;;;;;;;;;;;;;;;19.24;51.34;96062.66;4215341;28;5780;-71
2022/09/26 13:35:01;;;;;;;;;;;;;;;19.25;51.00;96065.06;4212353;28;5666;-72
2022/09/26 13:37:10;;;;;;;;;;;;;;;19.22;50.87;96056.78;4210824;28;5740;-72
2022/09/26 13:39:17;;;;;;;;;;;;;;;19.23;50.97;96056.50;4216704;28;5608;-71
2022/09/26 13:41:37;;;;;;;;;;;;;;;19.25;50.59;96048.19;4216439;28;5580;-71
2022/09/26 13:43:54;;;;;;;;;;;;;;;19.25;50.50;96045.50;4217526;28;5703;-71
2022/09/26 13:46:04;;;;;;;;;;;;;;;19.25;50.47;96045.50;4217367;28;5652;-72
2022/09/26 13:48:19;;;;;;;;;;;;;;;19.25;50.18;96042.84;4217581;28;5615;-72
2022/09/26 13:50:27;;;;;;;;;;;;;;;19.26;50.31;96041.78;4217366;28;5703;-72
2022/09/26 13:52:45;;;;;;;;;;;;;;;19.26;49.89;96044.47;4217609;28;5623;-72
2022/09/26 13:54:57;;;;;;;;;;;;;;;19.25;49.59;96032.13;4216871;28;5738;-71
2022/09/26 13:57:21;;;;;;;;;;;;;;;19.25;49.57;96035.59;4217421;28;5758;-72
2022/09/26 13:59:49;;;;;;;;;;;;;;;19.26;49.40;96036.44;4214830;28;5707;-72
2022/09/26 14:02:27;;;;;;;;;;;;;;;19.28;49.47;96040.44;4216243;28;5711;-71
2022/09/26 14:04:35;;;;;;;;;;;;;;;19.28;49.49;96042.31;4128840;28;5778;-71
2022/09/26 14:06:38;;;;;;;;;;;;;;;19.28;49.50;96042.31;4131971;28;7134;-72
2022/09/26 14:09:27;;;;;;;;;;;;;;;19.31;49.28;96036.41;4136254;28;5818;-71
2022/09/26 14:11:47;;;;;;;;;;;;;;;19.34;49.21;96044.72;4112369;28;5849;-72
2022/09/26 14:14:21;;;;;;;;;;;;;;;19.33;48.97;96034.28;4133613;28;5718;-71
2022/09/26 14:16:35;;;;;;;;;;;;;;;19.31;49.16;96026.50;4128361;28;5737;-72
2022/09/26 14:19:04;;;;;;;;;;;;;;;19.30;48.97;96024.91;4133289;28;5770;-71
2022/09/26 14:21:18;;;;;;;;;;;;;;;19.30;48.91;96019.53;4115937;28;5722;-72
2022/09/26 14:23:44;;;;;;;;;;;;;;;19.30;49.11;96024.91;4133285;28;5718;-72
2022/09/26 14:26:04;;;;;;;;;;;;;;;19.28;48.82;96028.94;4132346;28;5806;-71
2022/09/26 14:28:15;;;;;;;;;;;;;;;19.26;48.82;96020.34;4135678;28;5741;-71
2022/09/26 14:30:27;;;;;;;;;;;;;;;19.29;48.85;96011.78;4132510;28;5832;-71
2022/09/26 14:32:37;;;;;;;;;;;;;;;19.32;48.76;96009.34;4118808;28;5828;-71
2022/09/26 14:34:43;;;;;;;;;;;;;;;19.35;48.65;96010.69;4133875;28;6295;-71
2022/09/26 14:36:48;;;;;;;;;;;;;;;19.36;48.80;96006.94;4194762;28;5536;-71
2022/09/26 14:38:52;;;;;;;;;;;;;;;19.36;48.70;96007.72;4199092;28;5626;-71
2022/09/26 14:40:57;;;;;;;;;;;;;;;19.36;48.35;96006.94;4195064;28;5649;-72
2022/09/26 14:43:12;;;;;;;;;;;;;;;19.35;48.41;96006.13;4188265;28;5705;-73
2022/09/26 14:45:21;;;;;;;;;;;;;;;19.35;48.47;96002.66;4200474;28;5858;-72
2022/09/26 14:47:27;;;;;;;;;;;;;;;19.35;48.17;96008.00;4190915;28;5623;-72
2022/09/26 14:49:30;;;;;;;;;;;;;;;19.36;48.25;96001.56;4181866;28;5733;-71
2022/09/26 14:51:36;;;;;;;;;;;;;;;19.34;48.15;96004.53;4187715;28;5769;-72
2022/09/26 14:53:50;;;;;;;;;;;;;;;19.34;48.03;96003.72;4199448;28;5631;-71
2022/09/26 14:55:58;;;;;;;;;;;;;;;19.33;48.21;96004.78;4193912;28;5127;-72
2022/09/26 14:58:16;;;;;;;;;;;;;;;19.31;48.13;96009.63;4199379;28;5718;-72
2022/09/26 15:00:39;;;;;;;;;;;;;;;19.26;47.99;95990.88;4193116;28;5615;-73
2022/09/26 15:02:43;;;;;;;;;;;;;;;19.23;47.75;95997.56;4198660;28;5830;-73
2022/09/26 15:04:50;;;;;;;;;;;;;;;19.23;47.94;95992.19;4203758;28;5822;-73
2022/09/26 15:06:59;;;;;;;;;;;;;;;19.24;47.79;95993.00;4215589;28;5691;-73
2022/09/26 15:09:09;;;;;;;;;;;;;;;19.22;47.55;95995.94;4207326;28;5719;-73
2022/09/26 15:11:30;;;;;;;;;;;;;;;19.20;47.67;95985.50;4216047;28;5710;-72
2022/09/26 15:13:37;;;;;;;;;;;;;;;19.20;47.58;95990.84;4215078;28;5811;-72
2022/09/26 15:15:48;;;;;;;;;;;;;;;19.18;47.62;95987.66;4215637;28;5619;-72
2022/09/26 15:17:56;;;;;;;;;;;;;;;19.18;47.56;95986.84;4208720;28;5728;-72
2022/09/26 15:20:02;;;;;;;;;;;;;;;19.16;47.70;95981.75;4202031;28;5695;-73
2022/09/26 15:22:11;;;;;;;;;;;;;;;19.13;47.57;95984.94;4211624;28;5818;-71
2022/09/26 15:24:27;;;;;;;;;;;;;;;19.11;47.52;95979.06;4210908;28;5632;-71
2022/09/26 15:26:33;;;;;;;;;;;;;;;19.09;47.71;95978.53;4209240;28;5628;-71
2022/09/26 15:28:37;;;;;;;;;;;;;;;19.11;47.66;95979.06;4207672;28;6495;-75
2022/09/26 15:30:41;;;;;;;;;;;;;;;19.14;47.63;95975.03;4211391;28;5620;-74
2022/09/26 15:32:47;;;;;;;;;;;;;;;19.15;47.85;95963.28;4205184;28;5698;-74
2022/09/26 15:34:51;;;;;;;;;;;;;;;19.16;47.48;95979.06;4209436;28;5257;-75
2022/09/26 15:36:56;;;;;;;;;;;;;;;19.12;47.54;95975.31;4215322;28;7809;-75
2022/09/26 15:39:02;;;;;;;;;;;;;;;19.10;47.34;95969.41;4211764;28;5608;-74